sensor_id;sensor_type;location;lat;lon;timestamp;pressure;altitude;pressure_sealevel;temperature;humidity
20015;BME280;61787;42.022;23.078;2023-06-22T00:00:50;97048.47;;;22.49;75.67
20015;BME280;61787;42.022;23.078;2023-06-22T00:01:52;97045.38;;;22.47;75.58
20015;BME280;61787;42.022;23.078;2023-06-22T00:02:54;97049.25;;;22.49;75.39
20015;BME280;61787;42.022;23.078;2023-06-22T00:03:56;97045.34;;;22.50;74.99
20015;BME280;61787;42.022;23.078;2023-06-22T00:04:57;97046.91;;;22.51;74.97
20015;BME280;61787;42.022;23.078;2023-06-22T00:05:59;97042.19;;;22.56;75.23
20015;BME280;61787;42.022;23.078;2023-06-22T00:07:00;97048.78;;;22.58;74.78
20015;BME280;61787;42.022;23.078;2023-06-22T00:08:03;97049.94;;;22.61;75.15
20015;BME280;61787;42.022;23.078;2023-06-22T00:09:08;97061.66;;;22.58;75.17
20015;BME280;61787;42.022;23.078;2023-06-22T00:10:11;97050.78;;;22.54;75.74
20015;BME280;61787;42.022;23.078;2023-06-22T00:11:13;97057.41;;;22.53;76.40
20015;BME280;61787;42.022;23.078;2023-06-22T00:12:15;97060.19;;;22.49;77.31
20015;BME280;61787;42.022;23.078;2023-06-22T00:13:17;97064.09;;;22.48;77.07
20015;BME280;61787;42.022;23.078;2023-06-22T00:14:19;97072.63;;;22.54;76.05
20015;BME280;61787;42.022;23.078;2023-06-22T00:15:21;97069.88;;;22.58;76.40
20015;BME280;61787;42.022;23.078;2023-06-22T00:16:22;97064.03;;;22.56;76.20
20015;BME280;61787;42.022;23.078;2023-06-22T00:17:24;97059.75;;;22.54;75.97
20015;BME280;61787;42.022;23.078;2023-06-22T00:18:26;97069.88;;;22.58;75.39
20015;BME280;61787;42.022;23.078;2023-06-22T00:19:29;97065.56;;;22.60;74.94
20015;BME280;61787;42.022;23.078;2023-06-22T00:20:31;97064.81;;;22.56;75.56
20015;BME280;61787;42.022;23.078;2023-06-22T00:21:34;97063.84;;;22.32;75.60
20015;BME280;61787;42.022;23.078;2023-06-22T00:22:35;97070.75;;;21.96;75.16
20015;BME280;61787;42.022;23.078;2023-06-22T00:23:40;97063.03;;;21.84;75.86
20015;BME280;61787;42.022;23.078;2023-06-22T00:24:42;97063.03;;;21.80;76.14
20015;BME280;61787;42.022;23.078;2023-06-22T00:25:44;97056.81;;;21.80;75.91
20015;BME280;61787;42.022;23.078;2023-06-22T00:26:47;97059.47;;;21.87;76.27
20015;BME280;61787;42.022;23.078;2023-06-22T00:27:49;97060.63;;;21.96;75.37
20015;BME280;61787;42.022;23.078;2023-06-22T00:28:51;97062.53;;;22.03;74.21
20015;BME280;61787;42.022;23.078;2023-06-22T00:29:53;97052.00;;;22.05;72.90
20015;BME280;61787;42.022;23.078;2023-06-22T00:30:54;97055.81;;;22.11;72.76
20015;BME280;61787;42.022;23.078;2023-06-22T00:31:56;97057.38;;;22.16;72.16
20015;BME280;61787;42.022;23.078;2023-06-22T00:32:58;97057.34;;;22.19;71.73
20015;BME280;61787;42.022;23.078;2023-06-22T00:34:00;97050.25;;;22.25;71.78
20015;BME280;61787;42.022;23.078;2023-06-22T00:35:02;97052.31;;;22.14;71.69
20015;BME280;61787;42.022;23.078;2023-06-22T00:36:04;97051.16;;;22.08;70.89
20015;BME280;61787;42.022;23.078;2023-06-22T00:37:05;97052.00;;;22.05;70.55
20015;BME280;61787;42.022;23.078;2023-06-22T00:38:07;97049.66;;;22.03;70.60
20015;BME280;61787;42.022;23.078;2023-06-22T00:39:09;97048.06;;;22.06;70.71
20015;BME280;61787;42.022;23.078;2023-06-22T00:40:11;97048.03;;;22.09;69.77
20015;BME280;61787;42.022;23.078;2023-06-22T00:41:13;97044.47;;;22.16;69.08
20015;BME280;61787;42.022;23.078;2023-06-22T00:42:15;97050.69;;;22.20;69.26
20015;BME280;61787;42.022;23.078;2023-06-22T00:43:16;97047.53;;;22.25;69.07
20015;BME280;61787;42.022;23.078;2023-06-22T00:44:18;97044.72;;;22.32;69.57
20015;BME280;61787;42.022;23.078;2023-06-22T00:45:19;97050.94;;;22.36;69.47
20015;BME280;61787;42.022;23.078;2023-06-22T00:46:23;97051.69;;;22.37;69.10
20015;BME280;61787;42.022;23.078;2023-06-22T00:47:24;97060.28;;;22.39;68.86
20015;BME280;61787;42.022;23.078;2023-06-22T00:48:26;97050.94;;;22.36;67.98
20015;BME280;61787;42.022;23.078;2023-06-22T00:49:28;97046.28;;;22.33;67.83
20015;BME280;61787;42.022;23.078;2023-06-22T00:50:32;97047.88;;;22.27;66.06
20015;BME280;61787;42.022;23.078;2023-06-22T00:51:37;97045.84;;;21.87;66.46
20015;BME280;61787;42.022;23.078;2023-06-22T00:52:39;97044.31;;;21.82;66.70
20015;BME280;61787;42.022;23.078;2023-06-22T00:53:45;97045.09;;;21.83;66.51
20015;BME280;61787;42.022;23.078;2023-06-22T00:54:47;97039.63;;;21.83;66.73
20015;BME280;61787;42.022;23.078;2023-06-22T00:55:50;97034.34;;;21.54;66.64
20015;BME280;61787;42.022;23.078;2023-06-22T00:56:54;97034.00;;;21.49;66.29
20015;BME280;61787;42.022;23.078;2023-06-22T00:57:57;97034.72;;;21.56;66.58
20015;BME280;61787;42.022;23.078;2023-06-22T00:59:00;97033.56;;;21.57;66.57
20015;BME280;61787;42.022;23.078;2023-06-22T01:00:05;97043.66;;;21.60;66.61
20015;BME280;61787;42.022;23.078;2023-06-22T01:01:10;97024.94;;;21.62;66.54
20015;BME280;61787;42.022;23.078;2023-06-22T01:02:12;97029.66;;;21.58;66.25
20015;BME280;61787;42.022;23.078;2023-06-22T01:03:14;97046.03;;;21.58;66.58
20015;BME280;61787;42.022;23.078;2023-06-22T01:04:18;97042.19;;;21.45;66.26
20015;BME280;61787;42.022;23.078;2023-06-22T01:05:21;97039.50;;;21.35;66.81
20015;BME280;61787;42.022;23.078;2023-06-22T01:06:28;97043.09;;;21.21;67.19
20015;BME280;61787;42.022;23.078;2023-06-22T01:09:11;97046.28;;;20.95;68.67
20015;BME280;61787;42.022;23.078;2023-06-22T01:11:31;97057.22;;;20.80;68.90
20015;BME280;61787;42.022;23.078;2023-06-22T01:12:38;97056.47;;;20.69;68.88
20015;BME280;61787;42.022;23.078;2023-06-22T01:13:50;97057.66;;;20.54;68.99
20015;BME280;61787;42.022;23.078;2023-06-22T01:15:13;97054.16;;;20.50;68.98
20015;BME280;61787;42.022;23.078;2023-06-22T01:17:28;97053.00;;;20.44;69.47
20015;BME280;61787;42.022;23.078;2023-06-22T01:18:31;97062.72;;;20.52;68.97
20015;BME280;61787;42.022;23.078;2023-06-22T01:19:45;97066.59;;;20.58;69.79
20015;BME280;61787;42.022;23.078;2023-06-22T01:20:57;97060.38;;;20.65;69.74
20015;BME280;61787;42.022;23.078;2023-06-22T01:22:00;97062.31;;;20.64;69.57
20015;BME280;61787;42.022;23.078;2023-06-22T01:24:51;97054.13;;;20.68;68.94
20015;BME280;61787;42.022;23.078;2023-06-22T01:26:06;97055.34;;;20.56;68.71
20015;BME280;61787;42.022;23.078;2023-06-22T01:29:36;97056.47;;;20.27;70.51
20015;BME280;61787;42.022;23.078;2023-06-22T01:30:39;97060.00;;;20.24;71.11
20015;BME280;61787;42.022;23.078;2023-06-22T01:31:43;97061.56;;;20.14;71.98
20015;BME280;61787;42.022;23.078;2023-06-22T01:32:46;97059.22;;;20.13;72.27
20015;BME280;61787;42.022;23.078;2023-06-22T01:33:59;97056.50;;;20.20;72.35
20015;BME280;61787;42.022;23.078;2023-06-22T01:35:04;97054.94;;;20.19;72.42
20015;BME280;61787;42.022;23.078;2023-06-22T01:36:07;97067.38;;;20.13;72.81
20015;BME280;61787;42.022;23.078;2023-06-22T01:37:09;97065.03;;;20.08;72.54
20015;BME280;61787;42.022;23.078;2023-06-22T01:38:11;97060.34;;;19.90;73.50
20015;BME280;61787;42.022;23.078;2023-06-22T01:39:13;97064.25;;;19.96;73.55
20015;BME280;61787;42.022;23.078;2023-06-22T01:40:15;97066.59;;;20.09;73.26
20015;BME280;61787;42.022;23.078;2023-06-22T01:41:17;97075.97;;;20.25;73.48
20015;BME280;61787;42.022;23.078;2023-06-22T01:42:21;97068.22;;;20.31;73.11
20015;BME280;61787;42.022;23.078;2023-06-22T01:43:24;97070.53;;;20.36;73.10
20015;BME280;61787;42.022;23.078;2023-06-22T01:44:27;97062.75;;;20.38;72.60
20015;BME280;61787;42.022;23.078;2023-06-22T01:45:29;97064.69;;;20.41;72.75
20015;BME280;61787;42.022;23.078;2023-06-22T01:46:32;97072.06;;;20.37;72.59
20015;BME280;61787;42.022;23.078;2023-06-22T01:47:34;97064.66;;;20.30;72.59
20015;BME280;61787;42.022;23.078;2023-06-22T01:48:36;97069.72;;;20.25;73.10
20015;BME280;61787;42.022;23.078;2023-06-22T01:49:38;97063.88;;;20.23;74.45
20015;BME280;61787;42.022;23.078;2023-06-22T01:50:40;97066.59;;;20.23;76.17
20015;BME280;61787;42.022;23.078;2023-06-22T01:51:42;97069.72;;;20.25;76.19
20015;BME280;61787;42.022;23.078;2023-06-22T01:52:43;97065.03;;;20.22;76.83
20015;BME280;61787;42.022;23.078;2023-06-22T01:53:45;97063.50;;;20.21;76.96
20015;BME280;61787;42.022;23.078;2023-06-22T01:54:49;97069.72;;;20.25;76.10
20015;BME280;61787;42.022;23.078;2023-06-22T01:55:51;97070.50;;;20.25;75.64
20015;BME280;61787;42.022;23.078;2023-06-22T01:56:52;97066.22;;;20.28;75.72
20015;BME280;61787;42.022;23.078;2023-06-22T01:57:54;97058.84;;;20.25;75.42
20015;BME280;61787;42.022;23.078;2023-06-22T01:59:25;97059.59;;;20.11;76.84
20015;BME280;61787;42.022;23.078;2023-06-22T02:00:34;97073.59;;;19.92;78.12
20015;BME280;61787;42.022;23.078;2023-06-22T02:01:43;97075.94;;;19.93;78.26
20015;BME280;61787;42.022;23.078;2023-06-22T02:04:01;97075.94;;;20.08;78.59
20015;BME280;61787;42.022;23.078;2023-06-22T02:05:08;97081.38;;;20.18;79.03
20015;BME280;61787;42.022;23.078;2023-06-22T02:06:21;97074.38;;;20.28;77.93
20015;BME280;61787;42.022;23.078;2023-06-22T02:07:29;97075.97;;;20.36;78.00
20015;BME280;61787;42.022;23.078;2023-06-22T02:08:38;97065.84;;;20.43;77.82
20015;BME280;61787;42.022;23.078;2023-06-22T02:09:44;97083.75;;;20.48;77.62
20015;BME280;61787;42.022;23.078;2023-06-22T02:10:48;97075.19;;;20.53;77.38
20015;BME280;61787;42.022;23.078;2023-06-22T02:11:51;97086.84;;;20.61;75.86
20015;BME280;61787;42.022;23.078;2023-06-22T02:12:57;97079.84;;;20.63;75.29
20015;BME280;61787;42.022;23.078;2023-06-22T02:14:00;97087.59;;;20.68;74.28
20015;BME280;61787;42.022;23.078;2023-06-22T02:15:02;97100.84;;;20.73;73.75
20015;BME280;61787;42.022;23.078;2023-06-22T02:16:04;97097.72;;;20.75;74.07
20015;BME280;61787;42.022;23.078;2023-06-22T02:17:08;97104.34;;;20.77;73.55
20015;BME280;61787;42.022;23.078;2023-06-22T02:18:10;97101.63;;;20.81;72.75
20015;BME280;61787;42.022;23.078;2023-06-22T02:19:12;97103.97;;;20.82;73.00
20015;BME280;61787;42.022;23.078;2023-06-22T02:20:14;97103.94;;;20.79;73.32
20015;BME280;61787;42.022;23.078;2023-06-22T02:21:19;97109.41;;;20.79;73.54
20015;BME280;61787;42.022;23.078;2023-06-22T02:22:21;97105.50;;;20.83;73.16
20015;BME280;61787;42.022;23.078;2023-06-22T02:23:23;97104.34;;;20.84;73.22
20015;BME280;61787;42.022;23.078;2023-06-22T02:24:24;97104.72;;;20.79;73.59
20015;BME280;61787;42.022;23.078;2023-06-22T02:25:26;97107.88;;;20.53;75.41
20015;BME280;61787;42.022;23.078;2023-06-22T02:26:28;97106.34;;;20.41;76.90
20015;BME280;61787;42.022;23.078;2023-06-22T02:27:30;97106.28;;;20.24;78.20
20015;BME280;61787;42.022;23.078;2023-06-22T02:28:32;97104.75;;;20.16;79.19
20015;BME280;61787;42.022;23.078;2023-06-22T02:29:33;97102.03;;;20.16;79.14
20015;BME280;61787;42.022;23.078;2023-06-22T02:30:35;97104.72;;;20.23;78.84
20015;BME280;61787;42.022;23.078;2023-06-22T02:31:37;97112.16;;;20.26;78.88
20015;BME280;61787;42.022;23.078;2023-06-22T02:32:38;97112.50;;;20.28;78.81
20015;BME280;61787;42.022;23.078;2023-06-22T02:33:43;97111.78;;;20.34;78.57
20015;BME280;61787;42.022;23.078;2023-06-22T02:34:47;97110.22;;;20.37;78.16
20015;BME280;61787;42.022;23.078;2023-06-22T02:35:49;97114.50;;;20.41;78.22
20015;BME280;61787;42.022;23.078;2023-06-22T02:36:50;97111.00;;;20.45;78.02
20015;BME280;61787;42.022;23.078;2023-06-22T02:37:53;97106.34;;;20.45;77.07
20015;BME280;61787;42.022;23.078;2023-06-22T02:38:56;97109.44;;;20.33;76.07
20015;BME280;61787;42.022;23.078;2023-06-22T02:40:02;97117.16;;;20.17;76.64
20015;BME280;61787;42.022;23.078;2023-06-22T02:41:05;97116.41;;;20.06;74.43
20015;BME280;61787;42.022;23.078;2023-06-22T02:42:08;97122.63;;;20.10;75.22
20015;BME280;61787;42.022;23.078;2023-06-22T02:43:12;97128.84;;;19.99;75.40
20015;BME280;61787;42.022;23.078;2023-06-22T02:44:14;97124.53;;;19.84;73.79
20015;BME280;61787;42.022;23.078;2023-06-22T02:45:16;97120.22;;;19.69;72.97
20015;BME280;61787;42.022;23.078;2023-06-22T02:46:17;97117.03;;;19.53;73.73
20015;BME280;61787;42.022;23.078;2023-06-22T02:47:19;97122.03;;;19.44;74.41
20015;BME280;61787;42.022;23.078;2023-06-22T02:48:21;97116.16;;;19.35;74.73
20015;BME280;61787;42.022;23.078;2023-06-22T02:49:23;97110.28;;;19.26;75.56
20015;BME280;61787;42.022;23.078;2023-06-22T02:50:25;97108.31;;;19.15;76.16
20015;BME280;61787;42.022;23.078;2023-06-22T02:51:26;97114.47;;;19.05;77.03
20015;BME280;61787;42.022;23.078;2023-06-22T02:52:28;97113.69;;;19.01;77.45
20015;BME280;61787;42.022;23.078;2023-06-22T02:53:30;97117.53;;;18.97;78.06
20015;BME280;61787;42.022;23.078;2023-06-22T02:54:31;97112.06;;;18.93;78.26
20015;BME280;61787;42.022;23.078;2023-06-22T02:55:34;97108.94;;;18.88;79.03
20015;BME280;61787;42.022;23.078;2023-06-22T02:56:36;97114.69;;;18.79;79.43
20015;BME280;61787;42.022;23.078;2023-06-22T02:57:38;97106.47;;;18.65;80.33
20015;BME280;61787;42.022;23.078;2023-06-22T02:58:45;97111.47;;;18.63;81.47
20015;BME280;61787;42.022;23.078;2023-06-22T02:59:47;97107.16;;;18.55;81.67
20015;BME280;61787;42.022;23.078;2023-06-22T03:00:49;97105.94;;;18.49;82.53
20015;BME280;61787;42.022;23.078;2023-06-22T03:01:54;97103.97;;;18.46;83.27
20015;BME280;61787;42.022;23.078;2023-06-22T03:02:56;97106.28;;;18.44;82.91
20015;BME280;61787;42.022;23.078;2023-06-22T03:03:58;97104.78;;;18.50;83.08
20015;BME280;61787;42.022;23.078;2023-06-22T03:05:00;97106.81;;;18.56;82.55
20015;BME280;61787;42.022;23.078;2023-06-22T03:06:02;97107.25;;;18.65;82.60
20015;BME280;61787;42.022;23.078;2023-06-22T03:07:04;97101.88;;;18.76;82.35
20015;BME280;61787;42.022;23.078;2023-06-22T03:08:07;97107.81;;;18.92;82.09
20015;BME280;61787;42.022;23.078;2023-06-22T03:09:09;97109.03;;;19.02;82.27
20015;BME280;61787;42.022;23.078;2023-06-22T03:10:12;97109.06;;;19.12;81.78
20015;BME280;61787;42.022;23.078;2023-06-22T03:11:14;97104.44;;;19.24;81.78
20015;BME280;61787;42.022;23.078;2023-06-22T03:12:15;97106.03;;;19.28;81.50
20015;BME280;61787;42.022;23.078;2023-06-22T03:13:17;97106.09;;;19.39;81.06
20015;BME280;61787;42.022;23.078;2023-06-22T03:14:19;97113.53;;;19.49;80.41
20015;BME280;61787;42.022;23.078;2023-06-22T03:15:20;97113.16;;;19.57;79.73
20015;BME280;61787;42.022;23.078;2023-06-22T03:16:23;97117.09;;;19.67;79.15
20015;BME280;61787;42.022;23.078;2023-06-22T03:17:25;97121.78;;;19.77;78.74
20015;BME280;61787;42.022;23.078;2023-06-22T03:18:27;97114.78;;;19.87;78.58
20015;BME280;61787;42.022;23.078;2023-06-22T03:19:29;97116.38;;;19.98;78.59
20015;BME280;61787;42.022;23.078;2023-06-22T03:20:32;97117.16;;;20.02;78.81
20015;BME280;61787;42.022;23.078;2023-06-22T03:21:35;97110.97;;;20.06;78.89
20015;BME280;61787;42.022;23.078;2023-06-22T03:22:41;97118.34;;;20.05;79.29
20015;BME280;61787;42.022;23.078;2023-06-22T03:23:43;97113.28;;;20.07;79.17
20015;BME280;61787;42.022;23.078;2023-06-22T03:24:45;97115.63;;;20.09;78.90
20015;BME280;61787;42.022;23.078;2023-06-22T03:25:47;97117.19;;;20.13;78.09
20015;BME280;61787;42.022;23.078;2023-06-22T03:26:48;97119.91;;;20.17;78.09
20015;BME280;61787;42.022;23.078;2023-06-22T03:27:50;97130.41;;;20.22;77.62
20015;BME280;61787;42.022;23.078;2023-06-22T03:28:52;97121.84;;;20.27;77.26
20015;BME280;61787;42.022;23.078;2023-06-22T03:29:53;97128.13;;;20.31;76.86
20015;BME280;61787;42.022;23.078;2023-06-22T03:30:57;97125.78;;;20.33;76.17
20015;BME280;61787;42.022;23.078;2023-06-22T03:31:59;97130.47;;;20.36;75.90
20015;BME280;61787;42.022;23.078;2023-06-22T03:33:00;97136.31;;;20.41;75.39
20015;BME280;61787;42.022;23.078;2023-06-22T03:34:02;97126.56;;;20.48;75.20
20015;BME280;61787;42.022;23.078;2023-06-22T03:35:04;97129.66;;;20.53;74.81
20015;BME280;61787;42.022;23.078;2023-06-22T03:36:07;97121.09;;;20.58;74.81
20015;BME280;61787;42.022;23.078;2023-06-22T03:37:09;97127.72;;;20.64;75.13
20015;BME280;61787;42.022;23.078;2023-06-22T03:38:13;97132.00;;;20.72;75.27
20015;BME280;61787;42.022;23.078;2023-06-22T03:39:15;97131.97;;;20.83;75.54
20015;BME280;61787;42.022;23.078;2023-06-22T03:40:16;97136.28;;;20.88;74.59
20015;BME280;61787;42.022;23.078;2023-06-22T03:41:18;97135.47;;;20.83;74.56
20015;BME280;61787;42.022;23.078;2023-06-22T03:42:20;97133.94;;;20.82;75.07
20015;BME280;61787;42.022;23.078;2023-06-22T03:43:21;97135.09;;;20.85;75.02
20015;BME280;61787;42.022;23.078;2023-06-22T03:44:23;97137.03;;;20.84;74.84
20015;BME280;61787;42.022;23.078;2023-06-22T03:45:24;97141.72;;;20.88;74.52
20015;BME280;61787;42.022;23.078;2023-06-22T03:46:26;97146.38;;;20.91;74.30
20015;BME280;61787;42.022;23.078;2023-06-22T03:47:28;97155.38;;;20.88;74.21
20015;BME280;61787;42.022;23.078;2023-06-22T03:48:30;97149.50;;;20.89;74.22
20015;BME280;61787;42.022;23.078;2023-06-22T03:49:31;97147.56;;;20.90;74.07
20015;BME280;61787;42.022;23.078;2023-06-22T03:50:33;97149.91;;;20.91;73.95
20015;BME280;61787;42.022;23.078;2023-06-22T03:51:35;97151.06;;;20.97;74.12
20015;BME280;61787;42.022;23.078;2023-06-22T03:52:36;97158.44;;;21.04;74.57
20015;BME280;61787;42.022;23.078;2023-06-22T03:53:38;97158.41;;;21.11;74.45
20015;BME280;61787;42.022;23.078;2023-06-22T03:54:39;97152.59;;;21.12;74.54
20015;BME280;61787;42.022;23.078;2023-06-22T03:55:48;97158.06;;;21.16;74.32
20015;BME280;61787;42.022;23.078;2023-06-22T03:56:51;97156.50;;;21.15;74.79
20015;BME280;61787;42.022;23.078;2023-06-22T03:57:53;97158.41;;;21.11;76.16
20015;BME280;61787;42.022;23.078;2023-06-22T03:58:55;97160.38;;;21.07;76.71
20015;BME280;61787;42.022;23.078;2023-06-22T03:59:58;97164.28;;;20.95;76.88
20015;BME280;61787;42.022;23.078;2023-06-22T04:00:59;97158.47;;;20.82;78.40
20015;BME280;61787;42.022;23.078;2023-06-22T04:02:01;97162.34;;;20.78;78.79
20015;BME280;61787;42.022;23.078;2023-06-22T04:03:03;97179.50;;;20.71;79.54
20015;BME280;61787;42.022;23.078;2023-06-22T04:04:05;97172.09;;;20.65;80.31
20015;BME280;61787;42.022;23.078;2023-06-22T04:05:08;97167.03;;;20.63;80.07
20015;BME280;61787;42.022;23.078;2023-06-22T04:06:10;97167.03;;;20.70;80.00
20015;BME280;61787;42.022;23.078;2023-06-22T04:07:12;97167.44;;;20.76;79.49
20015;BME280;61787;42.022;23.078;2023-06-22T04:08:14;97170.16;;;20.76;80.34
20015;BME280;61787;42.022;23.078;2023-06-22T04:09:16;97167.81;;;20.81;80.04
20015;BME280;61787;42.022;23.078;2023-06-22T04:10:17;97168.59;;;20.93;77.81
20015;BME280;61787;42.022;23.078;2023-06-22T04:11:19;97178.72;;;20.89;77.66
20015;BME280;61787;42.022;23.078;2023-06-22T04:12:21;97180.28;;;20.82;78.41
20015;BME280;61787;42.022;23.078;2023-06-22T04:13:22;97174.44;;;20.80;78.34
20015;BME280;61787;42.022;23.078;2023-06-22T04:14:24;97172.50;;;20.63;77.92
20015;BME280;61787;42.022;23.078;2023-06-22T04:15:26;97174.44;;;20.38;79.16
20015;BME280;61787;42.022;23.078;2023-06-22T04:16:27;97176.31;;;20.20;79.60
20015;BME280;61787;42.022;23.078;2023-06-22T04:17:29;97181.75;;;20.16;78.77
20015;BME280;61787;42.022;23.078;2023-06-22T04:18:31;97177.88;;;20.14;78.47
20015;BME280;61787;42.022;23.078;2023-06-22T04:19:32;97182.16;;;20.15;79.24
20015;BME280;61787;42.022;23.078;2023-06-22T04:20:34;97183.34;;;20.28;78.46
20015;BME280;61787;42.022;23.078;2023-06-22T04:21:36;97177.88;;;20.21;78.65
20015;BME280;61787;42.022;23.078;2023-06-22T04:22:38;97179.44;;;20.15;79.20
20015;BME280;61787;42.022;23.078;2023-06-22T04:23:40;97179.44;;;20.18;79.33
20015;BME280;61787;42.022;23.078;2023-06-22T04:24:42;97184.88;;;20.15;78.72
20015;BME280;61787;42.022;23.078;2023-06-22T04:25:43;97181.78;;;20.20;78.72
20015;BME280;61787;42.022;23.078;2023-06-22T04:26:45;97180.63;;;20.21;79.45
20015;BME280;61787;42.022;23.078;2023-06-22T04:27:48;97180.28;;;20.40;78.87
20015;BME280;61787;42.022;23.078;2023-06-22T04:28:50;97176.38;;;20.48;74.86
20015;BME280;61787;42.022;23.078;2023-06-22T04:29:53;97185.72;;;20.47;71.99
20015;BME280;61787;42.022;23.078;2023-06-22T04:30:55;97171.72;;;20.45;71.78
20015;BME280;61787;42.022;23.078;2023-06-22T04:31:59;97177.53;;;20.47;71.47
20015;BME280;61787;42.022;23.078;2023-06-22T04:33:04;97178.72;;;20.60;70.90
20015;BME280;61787;42.022;23.078;2023-06-22T04:34:07;97184.94;;;20.68;70.87
20015;BME280;61787;42.022;23.078;2023-06-22T04:35:10;97186.13;;;20.74;71.78
20015;BME280;61787;42.022;23.078;2023-06-22T04:36:12;97190.78;;;20.84;69.74
20015;BME280;61787;42.022;23.078;2023-06-22T04:37:16;97185.72;;;20.75;70.08
20015;BME280;61787;42.022;23.078;2023-06-22T04:38:18;97190.00;;;20.80;70.40
20015;BME280;61787;42.022;23.078;2023-06-22T04:39:20;97184.19;;;20.81;68.47
20015;BME280;61787;42.022;23.078;2023-06-22T04:40:23;97186.50;;;20.87;69.07
20015;BME280;61787;42.022;23.078;2023-06-22T04:41:25;97182.59;;;20.95;69.05
20015;BME280;61787;42.022;23.078;2023-06-22T04:42:27;97187.25;;;21.05;69.42
20015;BME280;61787;42.022;23.078;2023-06-22T04:43:28;97182.19;;;21.24;69.99
20015;BME280;61787;42.022;23.078;2023-06-22T04:44:32;97178.63;;;21.42;69.07
20015;BME280;61787;42.022;23.078;2023-06-22T04:45:33;97184.81;;;21.63;71.10
20015;BME280;61787;42.022;23.078;2023-06-22T04:46:35;97184.75;;;21.78;73.07
20015;BME280;61787;42.022;23.078;2023-06-22T04:47:39;97183.88;;;21.91;73.92
20015;BME280;61787;42.022;23.078;2023-06-22T04:48:41;97178.41;;;22.02;74.95
20015;BME280;61787;42.022;23.078;2023-06-22T04:49:43;97182.63;;;22.17;74.86
20015;BME280;61787;42.022;23.078;2023-06-22T04:50:45;97183.66;;;22.37;74.90
20015;BME280;61787;42.022;23.078;2023-06-22T04:51:47;97186.31;;;22.51;74.76
20015;BME280;61787;42.022;23.078;2023-06-22T04:52:50;97190.50;;;22.67;74.60
20015;BME280;61787;42.022;23.078;2023-06-22T04:53:52;97189.63;;;22.80;74.12
20015;BME280;61787;42.022;23.078;2023-06-22T04:54:53;97186.41;;;22.89;74.06
20015;BME280;61787;42.022;23.078;2023-06-22T04:55:59;97184.75;;;23.02;73.92
20015;BME280;61787;42.022;23.078;2023-06-22T04:57:05;97186.94;;;23.14;73.48
20015;BME280;61787;42.022;23.078;2023-06-22T04:58:11;97195.47;;;23.23;73.34
20015;BME280;61787;42.022;23.078;2023-06-22T04:59:14;97189.91;;;23.34;72.74
20015;BME280;61787;42.022;23.078;2023-06-22T05:00:17;97194.88;;;23.43;72.37
20015;BME280;61787;42.022;23.078;2023-06-22T05:01:21;97191.34;;;23.46;70.85
20015;BME280;61787;42.022;23.078;2023-06-22T05:02:24;97190.97;;;23.44;70.69
20015;BME280;61787;42.022;23.078;2023-06-22T05:03:29;97188.22;;;23.44;69.82
20015;BME280;61787;42.022;23.078;2023-06-22T05:04:31;97188.69;;;23.35;70.15
20015;BME280;61787;42.022;23.078;2023-06-22T05:05:34;97185.28;;;23.27;69.77
20015;BME280;61787;42.022;23.078;2023-06-22T05:06:36;97193.47;;;23.27;69.80
20015;BME280;61787;42.022;23.078;2023-06-22T05:07:43;97198.84;;;23.38;69.68
20015;BME280;61787;42.022;23.078;2023-06-22T05:08:45;97193.63;;;23.51;69.21
20015;BME280;61787;42.022;23.078;2023-06-22T05:09:46;97189.72;;;23.52;68.67
20015;BME280;61787;42.022;23.078;2023-06-22T05:10:48;97185.84;;;23.49;68.41
20015;BME280;61787;42.022;23.078;2023-06-22T05:12:06;97187.91;;;23.34;69.08
20015;BME280;61787;42.022;23.078;2023-06-22T05:13:11;97187.81;;;23.04;69.49
20015;BME280;61787;42.022;23.078;2023-06-22T05:14:13;97191.00;;;22.99;70.10
20015;BME280;61787;42.022;23.078;2023-06-22T05:15:15;97188.66;;;23.01;70.22
20015;BME280;61787;42.022;23.078;2023-06-22T05:16:16;97187.88;;;23.01;69.99
20015;BME280;61787;42.022;23.078;2023-06-22T05:17:18;97190.91;;;23.13;70.19
20015;BME280;61787;42.022;23.078;2023-06-22T05:18:20;97193.47;;;23.27;69.32
20015;BME280;61787;42.022;23.078;2023-06-22T05:19:25;97184.38;;;23.37;68.79
20015;BME280;61787;42.022;23.078;2023-06-22T05:20:32;97189.06;;;23.37;67.92
20015;BME280;61787;42.022;23.078;2023-06-22T05:21:37;97181.69;;;23.34;68.58
20015;BME280;61787;42.022;23.078;2023-06-22T05:22:39;97193.50;;;23.24;69.29
20015;BME280;61787;42.022;23.078;2023-06-22T05:23:42;97190.22;;;23.39;69.26
20015;BME280;61787;42.022;23.078;2023-06-22T05:24:44;97193.56;;;23.58;67.99
20015;BME280;61787;42.022;23.078;2023-06-22T05:25:45;97196.53;;;23.70;70.24
20015;BME280;61787;42.022;23.078;2023-06-22T05:26:47;97192.75;;;23.91;68.01
20015;BME280;61787;42.022;23.078;2023-06-22T05:27:49;97192.22;;;24.03;66.02
20015;BME280;61787;42.022;23.078;2023-06-22T05:28:52;97190.66;;;24.02;65.30
20015;BME280;61787;42.022;23.078;2023-06-22T05:29:54;97186.34;;;24.05;65.06
20015;BME280;61787;42.022;23.078;2023-06-22T05:30:56;97196.16;;;24.02;64.59
20015;BME280;61787;42.022;23.078;2023-06-22T05:31:58;97191.69;;;24.12;64.76
20015;BME280;61787;42.022;23.078;2023-06-22T05:32:59;97182.91;;;24.28;64.27
20015;BME280;61787;42.022;23.078;2023-06-22T05:34:01;97183.94;;;24.37;64.05
20015;BME280;61787;42.022;23.078;2023-06-22T05:35:03;97188.44;;;24.51;64.09
20015;BME280;61787;42.022;23.078;2023-06-22T05:36:05;97187.91;;;24.33;64.40
20015;BME280;61787;42.022;23.078;2023-06-22T05:37:07;97185.56;;;24.35;64.69
20015;BME280;61787;42.022;23.078;2023-06-22T05:38:11;97185.44;;;24.42;64.36
20015;BME280;61787;42.022;23.078;2023-06-22T05:39:14;97186.94;;;24.46;63.10